sensor_id;sensor_type;location;lat;lon;timestamp;pressure;altitude;pressure_sealevel;temperature;humidity
12146;BME280;6136;47.032;15.398;2023-02-11T00:00:09;99518.72;;;-5.21;100.00
12146;BME280;6136;47.032;15.398;2023-02-11T00:02:38;99509.22;;;-5.22;100.00
12146;BME280;6136;47.032;15.398;2023-02-11T00:05:06;99502.00;;;-5.32;100.00
12146;BME280;6136;47.032;15.398;2023-02-11T00:07:34;99505.69;;;-5.24;100.00
12146;BME280;6136;47.032;15.398;2023-02-11T00:10:03;99502.13;;;-5.29;100.00
12146;BME280;6136;47.032;15.398;2023-02-11T00:12:33;99502.63;;;-5.39;100.00
12146;BME280;6136;47.032;15.398;2023-02-11T00:15:02;99500.25;;;-5.33;100.00
12146;BME280;6136;47.032;15.398;2023-02-11T00:17:32;99496.66;;;-5.38;100.00
12146;BME280;6136;47.032;15.398;2023-02-11T00:20:00;99499.19;;;-5.39;100.00
12146;BME280;6136;47.032;15.398;2023-02-11T00:22:28;99498.28;;;-5.40;100.00
12146;BME280;6136;47.032;15.398;2023-02-11T00:24:57;99495.53;;;-5.46;100.00
12146;BME280;6136;47.032;15.398;2023-02-11T00:27:25;99494.69;;;-5.45;100.00
12146;BME280;6136;47.032;15.398;2023-02-11T00:29:53;99482.53;;;-5.49;100.00
12146;BME280;6136;47.032;15.398;2023-02-11T00:32:21;99496.28;;;-5.50;100.00
12146;BME280;6136;47.032;15.398;2023-02-11T00:34:52;99484.19;;;-5.51;100.00
12146;BME280;6136;47.032;15.398;2023-02-11T00:37:21;99485.81;;;-5.53;100.00
12146;BME280;6136;47.032;15.398;2023-02-11T00:39:49;99486.84;;;-5.48;100.00
12146;BME280;6136;47.032;15.398;2023-02-11T00:42:17;99490.06;;;-5.55;100.00
12146;BME280;6136;47.032;15.398;2023-02-11T00:44:45;99464.78;;;-5.65;100.00
12146;BME280;6136;47.032;15.398;2023-02-11T00:47:15;99488.22;;;-5.59;100.00
12146;BME280;6136;47.032;15.398;2023-02-11T00:49:43;99485.63;;;-5.59;100.00
12146;BME280;6136;47.032;15.398;2023-02-11T00:52:13;99467.44;;;-5.62;100.00
12146;BME280;6136;47.032;15.398;2023-02-11T00:54:41;99466.50;;;-5.66;100.00
12146;BME280;6136;47.032;15.398;2023-02-11T00:57:10;99472.53;;;-5.65;100.00
12146;BME280;6136;47.032;15.398;2023-02-11T00:59:38;99466.75;;;-5.58;100.00
12146;BME280;6136;47.032;15.398;2023-02-11T01:02:06;99466.44;;;-5.67;100.00
12146;BME280;6136;47.032;15.398;2023-02-11T01:04:35;99468.88;;;-5.72;100.00
12146;BME280;6136;47.032;15.398;2023-02-11T01:07:03;99468.88;;;-5.72;100.00
12146;BME280;6136;47.032;15.398;2023-02-11T01:09:32;99460.34;;;-5.69;100.00
12146;BME280;6136;47.032;15.398;2023-02-11T01:12:00;99445.47;;;-5.76;100.00
12146;BME280;6136;47.032;15.398;2023-02-11T01:14:29;99450.56;;;-5.79;100.00
12146;BME280;6136;47.032;15.398;2023-02-11T01:16:57;99446.28;;;-5.79;100.00
12146;BME280;6136;47.032;15.398;2023-02-11T01:19:25;99433.31;;;-5.80;100.00
12146;BME280;6136;47.032;15.398;2023-02-11T01:21:53;99442.91;;;-5.76;100.00
12146;BME280;6136;47.032;15.398;2023-02-11T01:24:21;99432.81;;;-5.69;100.00
12146;BME280;6136;47.032;15.398;2023-02-11T01:26:51;99418.78;;;-5.77;100.00
12146;BME280;6136;47.032;15.398;2023-02-11T01:29:19;99417.25;;;-5.72;100.00
12146;BME280;6136;47.032;15.398;2023-02-11T01:31:47;99419.84;;;-5.70;100.00
12146;BME280;6136;47.032;15.398;2023-02-11T01:34:16;99407.56;;;-5.77;100.00
12146;BME280;6136;47.032;15.398;2023-02-11T01:36:44;99410.91;;;-5.81;100.00
12146;BME280;6136;47.032;15.398;2023-02-11T01:39:12;99400.56;;;-5.81;100.00
12146;BME280;6136;47.032;15.398;2023-02-11T01:41:41;99407.50;;;-5.80;100.00
12146;BME280;6136;47.032;15.398;2023-02-11T01:44:27;99404.84;;;-5.82;100.00
12146;BME280;6136;47.032;15.398;2023-02-11T01:46:56;99400.53;;;-5.83;100.00
12146;BME280;6136;47.032;15.398;2023-02-11T01:49:27;99398.81;;;-5.82;100.00
12146;BME280;6136;47.032;15.398;2023-02-11T01:51:59;99388.41;;;-5.85;100.00
12146;BME280;6136;47.032;15.398;2023-02-11T01:54:35;99390.09;;;-5.88;100.00
12146;BME280;6136;47.032;15.398;2023-02-11T01:57:25;99385.75;;;-5.89;100.00
12146;BME280;6136;47.032;15.398;2023-02-11T02:00:09;99388.34;;;-5.89;100.00
12146;BME280;6136;47.032;15.398;2023-02-11T02:02:45;99388.22;;;-5.92;100.00
12146;BME280;6136;47.032;15.398;2023-02-11T02:05:18;99388.34;;;-5.89;100.00
12146;BME280;6136;47.032;15.398;2023-02-11T02:07:55;99393.53;;;-5.87;100.00
12146;BME280;6136;47.032;15.398;2023-02-11T02:10:27;99395.22;;;-5.89;100.00
12146;BME280;6136;47.032;15.398;2023-02-11T02:12:55;99393.66;;;-5.82;100.00
12146;BME280;6136;47.032;15.398;2023-02-11T02:15:27;99379.66;;;-5.91;100.00
12146;BME280;6136;47.032;15.398;2023-02-11T02:18:16;99382.81;;;-5.99;100.00
12146;BME280;6136;47.032;15.398;2023-02-11T02:21:20;99384.75;;;-5.94;100.00
12146;BME280;6136;47.032;15.398;2023-02-11T02:27:23;99370.97;;;-5.93;100.00
12146;BME280;6136;47.032;15.398;2023-02-11T02:30:13;99372.78;;;-5.90;100.00
12146;BME280;6136;47.032;15.398;2023-02-11T02:32:49;99366.69;;;-5.94;100.00
12146;BME280;6136;47.032;15.398;2023-02-11T02:35:30;99361.41;;;-5.97;100.00
12146;BME280;6136;47.032;15.398;2023-02-11T02:38:06;99350.06;;;-6.02;100.00
12146;BME280;6136;47.032;15.398;2023-02-11T02:40:40;99358.69;;;-6.01;100.00
12146;BME280;6136;47.032;15.398;2023-02-11T02:43:09;99348.31;;;-6.03;100.00
12146;BME280;6136;47.032;15.398;2023-02-11T02:45:38;99359.56;;;-6.01;100.00
12146;BME280;6136;47.032;15.398;2023-02-11T02:48:22;99361.41;;;-5.97;100.00
12146;BME280;6136;47.032;15.398;2023-02-11T02:51:00;99357.13;;;-5.96;100.00
12146;BME280;6136;47.032;15.398;2023-02-11T02:53:42;99360.28;;;-6.05;100.00
12146;BME280;6136;47.032;15.398;2023-02-11T02:56:15;99342.91;;;-6.10;100.00
12146;BME280;6136;47.032;15.398;2023-02-11T02:59:03;99354.16;;;-6.08;100.00
12146;BME280;6136;47.032;15.398;2023-02-11T03:01:41;99350.84;;;-6.04;100.00
12146;BME280;6136;47.032;15.398;2023-02-11T03:04:20;99346.19;;;-6.16;100.00
12146;BME280;6136;47.032;15.398;2023-02-11T03:06:54;99342.47;;;-6.24;100.00
12146;BME280;6136;47.032;15.398;2023-02-11T03:09:27;99348.97;;;-6.35;100.00
12146;BME280;6136;47.032;15.398;2023-02-11T03:11:58;99354.31;;;-6.29;100.00
12146;BME280;6136;47.032;15.398;2023-02-11T03:14:28;99350.88;;;-6.30;100.00
12146;BME280;6136;47.032;15.398;2023-02-11T03:16:59;99332.88;;;-6.28;100.00
12146;BME280;6136;47.032;15.398;2023-02-11T03:19:32;99335.56;;;-6.25;100.00
12146;BME280;6136;47.032;15.398;2023-02-11T03:22:07;99336.38;;;-6.26;100.00
12146;BME280;6136;47.032;15.398;2023-02-11T03:24:38;99343.25;;;-6.27;100.00
12146;BME280;6136;47.032;15.398;2023-02-11T03:27:13;99345.69;;;-6.31;100.00
12146;BME280;6136;47.032;15.398;2023-02-11T03:29:50;99343.88;;;-6.34;100.00
12146;BME280;6136;47.032;15.398;2023-02-11T03:32:24;99345.78;;;-6.28;100.00
12146;BME280;6136;47.032;15.398;2023-02-11T03:34:58;99334.53;;;-6.30;100.00
12146;BME280;6136;47.032;15.398;2023-02-11T03:37:31;99336.69;;;-6.42;100.00
12146;BME280;6136;47.032;15.398;2023-02-11T03:40:02;99336.31;;;-6.54;100.00
12146;BME280;6136;47.032;15.398;2023-02-11T03:42:35;99324.19;;;-6.57;100.00
12146;BME280;6136;47.032;15.398;2023-02-11T03:45:08;99321.72;;;-6.54;100.00
12146;BME280;6136;47.032;15.398;2023-02-11T03:47:40;99319.19;;;-6.52;100.00
12146;BME280;6136;47.032;15.398;2023-02-11T03:50:13;99321.72;;;-6.54;100.00
12146;BME280;6136;47.032;15.398;2023-02-11T03:52:43;99303.50;;;-6.58;100.00
12146;BME280;6136;47.032;15.398;2023-02-11T03:55:15;99324.88;;;-6.62;100.00
12146;BME280;6136;47.032;15.398;2023-02-11T03:57:44;99309.50;;;-6.59;100.00
12146;BME280;6136;47.032;15.398;2023-02-11T04:00:13;99311.16;;;-6.61;100.00
12146;BME280;6136;47.032;15.398;2023-02-11T04:02:42;99306.50;;;-6.72;100.00
12146;BME280;6136;47.032;15.398;2023-02-11T04:05:14;99313.63;;;-6.64;100.00
12146;BME280;6136;47.032;15.398;2023-02-11T04:07:42;99308.47;;;-6.64;100.00
12146;BME280;6136;47.032;15.398;2023-02-11T04:10:11;99310.03;;;-6.70;100.00
12146;BME280;6136;47.032;15.398;2023-02-11T04:12:39;99309.09;;;-6.72;100.00
12146;BME280;6136;47.032;15.398;2023-02-11T04:15:08;99307.44;;;-6.70;100.00
12146;BME280;6136;47.032;15.398;2023-02-11T04:17:36;99320.22;;;-6.73;100.00
12146;BME280;6136;47.032;15.398;2023-02-11T04:20:05;99308.16;;;-6.74;100.00
12146;BME280;6136;47.032;15.398;2023-02-11T04:22:35;99302.72;;;-6.81;100.00
12146;BME280;6136;47.032;15.398;2023-02-11T04:25:04;99307.88;;;-6.81;100.00
12146;BME280;6136;47.032;15.398;2023-02-11T04:27:33;99296.81;;;-6.79;100.00
12146;BME280;6136;47.032;15.398;2023-02-11T04:30:03;99296.56;;;-6.86;100.00
12146;BME280;6136;47.032;15.398;2023-02-11T04:32:31;99297.56;;;-6.83;100.00
12146;BME280;6136;47.032;15.398;2023-02-11T04:34:59;99298.31;;;-6.85;100.00
12146;BME280;6136;47.032;15.398;2023-02-11T04:37:28;99292.16;;;-6.89;100.00
12146;BME280;6136;47.032;15.398;2023-02-11T04:39:58;99288.69;;;-6.91;100.00
12146;BME280;6136;47.032;15.398;2023-02-11T04:42:26;99293.16;;;-6.85;100.00
12146;BME280;6136;47.032;15.398;2023-02-11T04:44:54;99283.53;;;-6.91;100.00
12146;BME280;6136;47.032;15.398;2023-02-11T04:47:22;99281.00;;;-6.89;100.00
12146;BME280;6136;47.032;15.398;2023-02-11T04:49:50;99283.59;;;-6.88;100.00
12146;BME280;6136;47.032;15.398;2023-02-11T04:52:18;99264.56;;;-6.93;100.00
12146;BME280;6136;47.032;15.398;2023-02-11T04:54:46;99264.56;;;-6.93;100.00
12146;BME280;6136;47.032;15.398;2023-02-11T04:57:16;99274.97;;;-6.90;100.00
12146;BME280;6136;47.032;15.398;2023-02-11T04:59:44;99269.72;;;-6.93;100.00
12146;BME280;6136;47.032;15.398;2023-02-11T05:02:12;99265.44;;;-6.92;100.00
12146;BME280;6136;47.032;15.398;2023-02-11T05:04:40;99271.47;;;-6.92;100.00
12146;BME280;6136;47.032;15.398;2023-02-11T05:07:08;99266.25;;;-6.93;100.00
12146;BME280;6136;47.032;15.398;2023-02-11T05:09:36;99254.97;;;-6.97;100.00
12146;BME280;6136;47.032;15.398;2023-02-11T05:12:05;99259.19;;;-6.99;100.00
12146;BME280;6136;47.032;15.398;2023-02-11T05:14:35;99258.31;;;-6.99;100.00
12146;BME280;6136;47.032;15.398;2023-02-11T05:17:03;99255.81;;;-6.98;100.00
12146;BME280;6136;47.032;15.398;2023-02-11T05:19:31;99251.56;;;-6.96;100.00
12146;BME280;6136;47.032;15.398;2023-02-11T05:21:59;99255.88;;;-6.95;100.00
12146;BME280;6136;47.032;15.398;2023-02-11T05:24:30;99264.50;;;-6.94;100.00
12146;BME280;6136;47.032;15.398;2023-02-11T05:26:58;99242.91;;;-6.98;100.00
12146;BME280;6136;47.032;15.398;2023-02-11T05:29:27;99256.97;;;-6.88;100.00
12146;BME280;6136;47.032;15.398;2023-02-11T05:31:57;99259.41;;;-6.93;100.00
12146;BME280;6136;47.032;15.398;2023-02-11T05:34:25;99260.16;;;-6.95;100.00
12146;BME280;6136;47.032;15.398;2023-02-11T05:36:54;99264.34;;;-6.99;100.00
12146;BME280;6136;47.032;15.398;2023-02-11T05:39:22;99245.19;;;-7.07;100.00
12146;BME280;6136;47.032;15.398;2023-02-11T05:41:50;99262.59;;;-7.00;100.00
12146;BME280;6136;47.032;15.398;2023-02-11T05:44:18;99249.66;;;-7.01;100.00
12146;BME280;6136;47.032;15.398;2023-02-11T05:46:47;99250.44;;;-7.04;100.00
12146;BME280;6136;47.032;15.398;2023-02-11T05:49:17;99256.72;;;-6.96;100.00
12146;BME280;6136;47.032;15.398;2023-02-11T05:51:45;99255.25;;;-6.89;100.00
12146;BME280;6136;47.032;15.398;2023-02-11T05:54:14;99256.34;;;-6.81;100.00
12146;BME280;6136;47.032;15.398;2023-02-11T05:56:42;99258.06;;;-6.82;100.00
12146;BME280;6136;47.032;15.398;2023-02-11T05:59:12;99260.59;;;-6.83;100.00
12146;BME280;6136;47.032;15.398;2023-02-11T06:01:41;99262.84;;;-6.92;100.00
12146;BME280;6136;47.032;15.398;2023-02-11T06:04:09;99261.97;;;-6.93;100.00
12146;BME280;6136;47.032;15.398;2023-02-11T06:06:38;99259.59;;;-6.87;100.00
12146;BME280;6136;47.032;15.398;2023-02-11T06:09:08;99264.44;;;-6.96;100.00
12146;BME280;6136;47.032;15.398;2023-02-11T06:11:37;99253.25;;;-6.96;100.00
12146;BME280;6136;47.032;15.398;2023-02-11T06:14:05;99260.03;;;-6.75;100.00
12146;BME280;6136;47.032;15.398;2023-02-11T06:16:33;99246.41;;;-6.71;100.00
12146;BME280;6136;47.032;15.398;2023-02-11T06:19:01;99247.28;;;-6.70;100.00
12146;BME280;6136;47.032;15.398;2023-02-11T06:21:29;99248.34;;;-6.63;100.00
12146;BME280;6136;47.032;15.398;2023-02-11T06:24:11;99239.22;;;-6.54;100.00
12146;BME280;6136;47.032;15.398;2023-02-11T06:26:39;99237.59;;;-6.50;100.00
12146;BME280;6136;47.032;15.398;2023-02-11T06:29:07;99245.81;;;-6.35;100.00
12146;BME280;6136;47.032;15.398;2023-02-11T06:31:36;99237.19;;;-6.36;100.00
12146;BME280;6136;47.032;15.398;2023-02-11T06:34:05;99229.22;;;-6.15;100.00
12146;BME280;6136;47.032;15.398;2023-02-11T06:36:34;99235.88;;;-5.95;100.00
12146;BME280;6136;47.032;15.398;2023-02-11T06:39:03;99223.38;;;-5.79;100.00
12146;BME280;6136;47.032;15.398;2023-02-11T06:41:32;99227.97;;;-5.69;100.00
12146;BME280;6136;47.032;15.398;2023-02-11T06:44:01;99229.22;;;-5.55;100.00
12146;BME280;6136;47.032;15.398;2023-02-11T06:46:29;99229.72;;;-5.37;100.00
12146;BME280;6136;47.032;15.398;2023-02-11T06:48:57;99240.63;;;-5.16;100.00
12146;BME280;6136;47.032;15.398;2023-02-11T06:51:25;99239.47;;;-4.94;100.00
12146;BME280;6136;47.032;15.398;2023-02-11T06:53:54;99242.75;;;-4.66;100.00
12146;BME280;6136;47.032;15.398;2023-02-11T06:56:23;99244.97;;;-4.47;100.00
12146;BME280;6136;47.032;15.398;2023-02-11T06:58:55;99236.78;;;-4.28;100.00
12146;BME280;6136;47.032;15.398;2023-02-11T07:01:24;99225.91;;;-4.13;100.00
12146;BME280;6136;47.032;15.398;2023-02-11T07:03:53;99233.03;;;-4.03;100.00
12146;BME280;6136;47.032;15.398;2023-02-11T07:06:25;99229.81;;;-3.93;100.00
12146;BME280;6136;47.032;15.398;2023-02-11T07:08:54;99238.31;;;-3.58;100.00
12146;BME280;6136;47.032;15.398;2023-02-11T07:11:24;99248.09;;;-3.45;100.00
12146;BME280;6136;47.032;15.398;2023-02-11T07:13:55;99237.81;;;-3.40;100.00
12146;BME280;6136;47.032;15.398;2023-02-11T07:16:24;99228.72;;;-3.19;100.00
12146;BME280;6136;47.032;15.398;2023-02-11T07:18:52;99235.16;;;-2.98;100.00
12146;BME280;6136;47.032;15.398;2023-02-11T07:21:21;99237.09;;;-2.87;100.00
12146;BME280;6136;47.032;15.398;2023-02-11T07:23:50;99228.03;;;-2.60;98.03
12146;BME280;6136;47.032;15.398;2023-02-11T07:26:20;99223.47;;;-2.75;97.18
12146;BME280;6136;47.032;15.398;2023-02-11T07:28:49;99230.38;;;-2.76;97.80
12146;BME280;6136;47.032;15.398;2023-02-11T07:31:21;99231.41;;;-2.64;98.24
12146;BME280;6136;47.032;15.398;2023-02-11T07:33:51;99222.09;;;-2.53;97.85
12146;BME280;6136;47.032;15.398;2023-02-11T07:36:20;99228.31;;;-2.42;96.78
12146;BME280;6136;47.032;15.398;2023-02-11T07:38:49;99227.53;;;-2.38;97.24
12146;BME280;6136;47.032;15.398;2023-02-11T07:41:18;99234.66;;;-2.25;94.81
12146;BME280;6136;47.032;15.398;2023-02-11T07:43:47;99241.84;;;-2.06;94.21
12146;BME280;6136;47.032;15.398;2023-02-11T07:46:17;99231.88;;;-1.75;92.34
12146;BME280;6136;47.032;15.398;2023-02-11T07:48:48;99234.06;;;-1.39;91.59
12146;BME280;6136;47.032;15.398;2023-02-11T07:51:18;99226.41;;;-1.26;89.30
12146;BME280;6136;47.032;15.398;2023-02-11T07:53:47;99229.03;;;-1.26;88.12
12146;BME280;6136;47.032;15.398;2023-02-11T07:56:16;99218.66;;;-1.23;88.95
12146;BME280;6136;47.032;15.398;2023-02-11T07:58:45;99216.28;;;-1.04;86.78
12146;BME280;6136;47.032;15.398;2023-02-11T08:01:19;99225.09;;;-0.90;86.77
12146;BME280;6136;47.032;15.398;2023-02-11T08:03:50;99221.56;;;-0.94;86.26
12146;BME280;6136;47.032;15.398;2023-02-11T08:06:20;99213.72;;;-0.98;86.76
12146;BME280;6136;47.032;15.398;2023-02-11T08:08:49;99218.09;;;-0.97;87.68
12146;BME280;6136;47.032;15.398;2023-02-11T08:11:19;99218.84;;;-1.06;88.23
12146;BME280;6136;47.032;15.398;2023-02-11T08:13:48;99216.22;;;-1.07;89.39
12146;BME280;6136;47.032;15.398;2023-02-11T08:16:18;99227.72;;;-0.86;89.59
12146;BME280;6136;47.032;15.398;2023-02-11T08:18:47;99221.63;;;-0.88;87.44
12146;BME280;6136;47.032;15.398;2023-02-11T08:21:18;99230.34;;;-0.84;87.38
12146;BME280;6136;47.032;15.398;2023-02-11T08:23:47;99221.94;;;-0.51;85.56
12146;BME280;6136;47.032;15.398;2023-02-11T08:26:17;99220.56;;;-0.04;84.48
12146;BME280;6136;47.032;15.398;2023-02-11T08:28:46;99232.91;;;0.26;80.93
12146;BME280;6136;47.032;15.398;2023-02-11T08:31:16;99225.16;;;0.45;80.63
12146;BME280;6136;47.032;15.398;2023-02-11T08:33:45;99217.47;;;0.76;79.07
12146;BME280;6136;47.032;15.398;2023-02-11T08:36:15;99206.25;;;1.09;77.96
12146;BME280;6136;47.032;15.398;2023-02-11T08:38:45;99211.47;;;1.09;74.43
12146;BME280;6136;47.032;15.398;2023-02-11T08:41:14;99211.47;;;1.28;74.59
12146;BME280;6136;47.032;15.398;2023-02-11T08:43:43;99222.81;;;1.51;74.45
12146;BME280;6136;47.032;15.398;2023-02-11T08:46:13;99223.72;;;1.61;74.30
12146;BME280;6136;47.032;15.398;2023-02-11T08:48:42;99220.19;;;1.63;72.06
12146;BME280;6136;47.032;15.398;2023-02-11T08:51:13;99214.91;;;2.21;71.39
12146;BME280;6136;47.032;15.398;2023-02-11T08:53:41;99220.84;;;2.68;70.22
12146;BME280;6136;47.032;15.398;2023-02-11T08:56:11;99218.97;;;2.95;69.97
12146;BME280;6136;47.032;15.398;2023-02-11T08:58:41;99205.75;;;3.13;66.76
12146;BME280;6136;47.032;15.398;2023-02-11T09:01:09;99209.28;;;3.06;64.93
12146;BME280;6136;47.032;15.398;2023-02-11T09:03:38;99211.03;;;3.04;67.22
12146;BME280;6136;47.032;15.398;2023-02-11T09:06:07;99205.59;;;3.34;66.99
12146;BME280;6136;47.032;15.398;2023-02-11T09:08:37;99202.03;;;3.47;66.02
12146;BME280;6136;47.032;15.398;2023-02-11T09:11:06;99207.09;;;3.69;64.47
12146;BME280;6136;47.032;15.398;2023-02-11T09:13:36;99196.50;;;3.82;62.65
12146;BME280;6136;47.032;15.398;2023-02-11T09:16:05;99193.81;;;3.85;63.36
12146;BME280;6136;47.032;15.398;2023-02-11T09:18:33;99189.06;;;3.26;65.05
12146;BME280;6136;47.032;15.398;2023-02-11T09:21:02;99194.44;;;3.11;66.20
12146;BME280;6136;47.032;15.398;2023-02-11T09:23:30;99190.28;;;2.69;67.65
12146;BME280;6136;47.032;15.398;2023-02-11T09:26:04;99196.41;;;2.68;67.64
12146;BME280;6136;47.032;15.398;2023-02-11T09:28:36;99193.00;;;2.45;68.24
12146;BME280;6136;47.032;15.398;2023-02-11T09:31:05;99193.72;;;2.82;67.95
12146;BME280;6136;47.032;15.398;2023-02-11T09:33:33;99187.47;;;3.08;66.56
12146;BME280;6136;47.032;15.398;2023-02-11T09:36:03;99173.03;;;3.69;66.90
12146;BME280;6136;47.032;15.398;2023-02-11T09:38:32;99174.97;;;4.33;62.27
12146;BME280;6136;47.032;15.398;2023-02-11T09:41:00;99172.72;;;4.74;61.20
12146;BME280;6136;47.032;15.398;2023-02-11T09:43:40;99157.31;;;5.11;60.19
12146;BME280;6136;47.032;15.398;2023-02-11T09:46:13;99167.78;;;5.13;60.76
12146;BME280;6136;47.032;15.398;2023-02-11T09:48:44;99168.16;;;4.87;59.52
12146;BME280;6136;47.032;15.398;2023-02-11T09:51:19;99168.06;;;4.22;60.83
12146;BME280;6136;47.032;15.398;2023-02-11T09:53:56;99162.34;;;3.85;62.44
12146;BME280;6136;47.032;15.398;2023-02-11T09:56:31;99158.28;;;3.56;64.42
12146;BME280;6136;47.032;15.398;2023-02-11T09:59:00;99153.88;;;3.61;65.49
12146;BME280;6136;47.032;15.398;2023-02-11T10:01:33;99150.72;;;4.11;62.19
12146;BME280;6136;47.032;15.398;2023-02-11T10:04:13;99146.38;;;4.79;61.30
12146;BME280;6136;47.032;15.398;2023-02-11T10:06:48;99145.47;;;4.81;59.10
12146;BME280;6136;47.032;15.398;2023-02-11T10:09:35;99135.44;;;5.07;60.51
12146;BME280;6136;47.032;15.398;2023-02-11T10:12:19;99123.59;;;5.86;57.77
12146;BME280;6136;47.032;15.398;2023-02-11T10:15:07;99129.88;;;6.26;57.85
12146;BME280;6136;47.032;15.398;2023-02-11T10:17:44;99132.22;;;6.41;55.85
12146;BME280;6136;47.032;15.398;2023-02-11T10:20:22;99125.28;;;6.37;54.73
12146;BME280;6136;47.032;15.398;2023-02-11T10:22:54;99121.63;;;6.82;54.69
12146;BME280;6136;47.032;15.398;2023-02-11T10:25:27;99116.44;;;7.18;53.35
12146;BME280;6136;47.032;15.398;2023-02-11T10:27:56;99107.81;;;7.47;53.07
12146;BME280;6136;47.032;15.398;2023-02-11T10:30:31;99102.50;;;7.82;51.31
12146;BME280;6136;47.032;15.398;2023-02-11T10:33:03;99101.63;;;8.45;48.82
12146;BME280;6136;47.032;15.398;2023-02-11T10:35:37;99088.38;;;8.46;49.35
12146;BME280;6136;47.032;15.398;2023-02-11T10:38:07;99084.72;;;9.08;46.43
12146;BME280;6136;47.032;15.398;2023-02-11T10:40:35;99077.00;;;9.02;46.75
12146;BME280;6136;47.032;15.398;2023-02-11T10:43:07;99072.66;;;8.99;46.92
12146;BME280;6136;47.032;15.398;2023-02-11T10:45:41;99081.91;;;9.91;45.59
12146;BME280;6136;47.032;15.398;2023-02-11T10:48:35;99054.44;;;10.42;43.22
12146;BME280;6136;47.032;15.398;2023-02-11T10:51:15;99050.41;;;10.55;44.29
12146;BME280;6136;47.032;15.398;2023-02-11T10:53:44;99057.44;;;10.33;43.12
12146;BME280;6136;47.032;15.398;2023-02-11T10:56:20;99061.47;;;10.20;44.10
12146;BME280;6136;47.032;15.398;2023-02-11T10:58:55;99053.09;;;10.30;42.99
12146;BME280;6136;47.032;15.398;2023-02-11T11:01:38;99044.00;;;10.82;42.70
12146;BME280;6136;47.032;15.398;2023-02-11T11:04:34;99048.91;;;11.57;40.31
12146;BME280;6136;47.032;15.398;2023-02-11T11:07:17;99038.47;;;11.52;41.31
12146;BME280;6136;47.032;15.398;2023-02-11T11:09:50;99032.06;;;11.98;39.06
12146;BME280;6136;47.032;15.398;2023-02-11T11:12:27;99042.16;;;12.11;38.72
12146;BME280;6136;47.032;15.398;2023-02-11T11:14:57;99037.47;;;11.77;39.31
12146;BME280;6136;47.032;15.398;2023-02-11T11:17:28;99041.00;;;11.77;39.11
12146;BME280;6136;47.032;15.398;2023-02-11T11:20:21;99029.81;;;11.69;39.14
12146;BME280;6136;47.032;15.398;2023-02-11T11:22:51;99035.88;;;11.51;39.04
12146;BME280;6136;47.032;15.398;2023-02-11T11:25:24;99015.25;;;12.56;36.29
12146;BME280;6136;47.032;15.398;2023-02-11T11:27:56;99013.72;;;12.13;37.25
12146;BME280;6136;47.032;15.398;2023-02-11T11:30:31;99007.13;;;11.82;37.74
12146;BME280;6136;47.032;15.398;2023-02-11T11:33:03;99008.66;;;11.25;37.60
12146;BME280;6136;47.032;15.398;2023-02-11T11:35:31;98995.31;;;10.85;38.55
12146;BME280;6136;47.032;15.398;2023-02-11T11:38:02;98983.97;;;11.03;38.67
12146;BME280;6136;47.032;15.398;2023-02-11T11:40:32;98987.09;;;10.47;40.29
12146;BME280;6136;47.032;15.398;2023-02-11T11:43:14;98984.56;;;10.44;40.08
12146;BME280;6136;47.032;15.398;2023-02-11T11:45:54;98986.59;;;11.03;38.58
12146;BME280;6136;47.032;15.398;2023-02-11T11:48:27;98971.69;;;10.57;38.22
12146;BME280;6136;47.032;15.398;2023-02-11T11:51:00;98970.25;;;10.48;38.28
12146;BME280;6136;47.032;15.398;2023-02-11T11:53:36;98966.25;;;10.38;39.05
12146;BME280;6136;47.032;15.398;2023-02-11T11:56:11;98969.44;;;10.90;39.84
12146;BME280;6136;47.032;15.398;2023-02-11T11:58:41;98946.69;;;12.06;37.13
12146;BME280;6136;47.032;15.398;2023-02-11T12:01:17;98935.78;;;12.12;35.82
12146;BME280;6136;47.032;15.398;2023-02-11T12:07:01;98945.94;;;13.12;33.71
12146;BME280;6136;47.032;15.398;2023-02-11T12:09:39;98942.59;;;13.77;33.79
12146;BME280;6136;47.032;15.398;2023-02-11T12:12:23;98942.22;;;13.50;32.98
12146;BME280;6136;47.032;15.398;2023-02-11T12:15:06;98953.28;;;13.43;32.42
12146;BME280;6136;47.032;15.398;2023-02-11T12:17:51;98944.91;;;13.16;33.19
12146;BME280;6136;47.032;15.398;2023-02-11T12:20:31;98922.47;;;14.20;31.86
12146;BME280;6136;47.032;15.398;2023-02-11T12:23:20;98905.09;;;14.13;31.52
12146;BME280;6136;47.032;15.398;2023-02-11T12:25:58;98910.97;;;13.87;31.59
12146;BME280;6136;47.032;15.398;2023-02-11T12:28:36;98895.03;;;14.81;30.71
12146;BME280;6136;47.032;15.398;2023-02-11T12:31:16;98894.69;;;14.56;30.95
12146;BME280;6136;47.032;15.398;2023-02-11T12:34:07;98898.53;;;14.03;31.61
12146;BME280;6136;47.032;15.398;2023-02-11T12:36:58;98887.09;;;14.17;31.40
12146;BME280;6136;47.032;15.398;2023-02-11T12:39:34;98888.25;;;13.80;32.67
12146;BME280;6136;47.032;15.398;2023-02-11T12:42:19;98877.69;;;14.43;30.77
12146;BME280;6136;47.032;15.398;2023-02-11T12:45:19;98870.13;;;13.71;31.56
12146;BME280;6136;47.032;15.398;2023-02-11T12:47:59;98868.13;;;13.41;32.63
12146;BME280;6136;47.032;15.398;2023-02-11T12:50:39;98881.03;;;12.27;33.97
12146;BME280;6136;47.032;15.398;2023-02-11T12:53:24;98877.81;;;11.83;34.79
12146;BME280;6136;47.032;15.398;2023-02-11T12:56:03;98874.38;;;11.21;35.91
12146;BME280;6136;47.032;15.398;2023-02-11T12:58:34;98859.19;;;11.25;35.50
12146;BME280;6136;47.032;15.398;2023-02-11T13:01:16;98848.00;;;10.98;36.23
12146;BME280;6136;47.032;15.398;2023-02-11T13:03:51;98854.34;;;12.11;35.08
12146;BME280;6136;47.032;15.398;2023-02-11T13:06:24;98850.16;;;12.77;33.88
12146;BME280;6136;47.032;15.398;2023-02-11T13:09:00;98837.34;;;13.03;33.13
12146;BME280;6136;47.032;15.398;2023-02-11T13:11:33;98826.03;;;13.32;32.31
12146;BME280;6136;47.032;15.398;2023-02-11T13:14:08;98827.63;;;13.19;32.10
12146;BME280;6136;47.032;15.398;2023-02-11T13:16:40;98818.38;;;12.92;32.99
12146;BME280;6136;47.032;15.398;2023-02-11T13:19:17;98820.09;;;12.75;32.90
12146;BME280;6136;47.032;15.398;2023-02-11T13:22:01;98817.38;;;12.94;32.11
12146;BME280;6136;47.032;15.398;2023-02-11T13:24:41;98819.97;;;12.78;32.05
12146;BME280;6136;47.032;15.398;2023-02-11T13:27:25;98811.81;;;12.30;32.89